Home PIREPS Pireps

Flight BEL5579

  • Submitted By: Johan Willems
  • Departure Airport: Bruxelles National (EBBR)
  • Arrival Airport: airport Hamburg-Fuhlsbuttel (EDDH)
  • Aircraft: A319-112 (OO-SSG)
  • Flight Time: 01.08
  • Date Submitted: 23/04/2015
  • Status: Accepted
Flight Details
Gross Revenue:
(116 load / € 65.00 per unit
€ 7,540.00
Fuel Cost:
(3237 fuel used @ 5.1 / unit)
€ 16,508.70

Additional Log Information:

View Log

Aircraft Used in flight is Airbus A320 brussels
20:32 Brakes are On
20:33 Brakes are Released
20:37 You Took off @ 145 Knots and Flaps at Position 3
Departure Weather
EBBR 231820Z 35005KT CAVOK 14/07 Q1016 NOSIGrn
20:38 Landing Gear Up @ 154 Knots and 220 Feet
20:38 You exceeded maximum bank angle
20:41 Above FL100 you need to switch of the landing lights
21:28 Landing Gear Down @ 143 Knots and 1830 Feet
21:31 You Landed @ 138 Knots and with -300 Vertical Speed
Arrival Weather
EDDH 231850Z 29006KT CAVOK 10/07 Q1016 BECMG BKN013rn
21:37 Brakes are On
21:38 Brussels Bel-Track1.0.0.9

Route Map

Corporate About Us Our Team Vacancies Information Fleet Route Network Rules and Regulations Operations Flight Schedules Event Center Tours Partners IVAO Vatsim Acars dev FSCB

fb Users Online No pilots online!
0 Pilot(s) and 76 Guest(s) Online
CMS by phpVMS - Design by Crazycreatives.com - Copyright © 2018 - Brussels Airlines Virtual